sensor_id;sensor_type;location;lat;lon;timestamp;pressure;altitude;pressure_sealevel;temperature;humidity
10652;BME280;5374;42.742;23.266;2023-05-11T00:00:50;95650.97;;;10.51;89.77
10652;BME280;5374;42.742;23.266;2023-05-11T00:03:39;95612.22;;;10.33;88.06
10652;BME280;5374;42.742;23.266;2023-05-11T00:06:26;95642.91;;;10.46;88.47
10652;BME280;5374;42.742;23.266;2023-05-11T00:09:13;95584.63;;;10.01;88.90
10652;BME280;5374;42.742;23.266;2023-05-11T00:12:00;95618.16;;;10.23;88.59
10652;BME280;5374;42.742;23.266;2023-05-11T00:14:48;95622.66;;;10.23;89.05
10652;BME280;5374;42.742;23.266;2023-05-11T00:17:35;95645.28;;;10.25;90.32
10652;BME280;5374;42.742;23.266;2023-05-11T00:20:24;95613.72;;;9.95;90.66
10652;BME280;5374;42.742;23.266;2023-05-11T00:23:11;95641.72;;;10.20;90.15
10652;BME280;5374;42.742;23.266;2023-05-11T00:25:58;95596.38;;;9.88;89.66
10652;BME280;5374;42.742;23.266;2023-05-11T00:28:45;95643.56;;;10.19;88.71
10652;BME280;5374;42.742;23.266;2023-05-11T00:31:32;95601.75;;;9.76;88.58
10652;BME280;5374;42.742;23.266;2023-05-11T00:34:19;95662.53;;;10.11;88.10
10652;BME280;5374;42.742;23.266;2023-05-11T00:37:08;95640.09;;;10.02;87.02
10652;BME280;5374;42.742;23.266;2023-05-11T00:39:55;95665.44;;;10.10;87.11
10652;BME280;5374;42.742;23.266;2023-05-11T00:42:42;95646.91;;;9.98;86.32
10652;BME280;5374;42.742;23.266;2023-05-11T00:45:30;95678.94;;;10.08;85.96
10652;BME280;5374;42.742;23.266;2023-05-11T00:48:17;95598.69;;;9.68;86.52
10652;BME280;5374;42.742;23.266;2023-05-11T00:51:26;95656.25;;;10.01;86.42
10652;BME280;5374;42.742;23.266;2023-05-11T00:54:23;95661.41;;;9.90;86.88
10652;BME280;5374;42.742;23.266;2023-05-11T00:57:11;95636.63;;;9.85;85.51
10652;BME280;5374;42.742;23.266;2023-05-11T01:00:14;95640.81;;;9.81;85.73
10652;BME280;5374;42.742;23.266;2023-05-11T01:03:04;95648.84;;;9.86;86.07
10652;BME280;5374;42.742;23.266;2023-05-11T01:06:06;95596.91;;;9.56;85.03
10652;BME280;5374;42.742;23.266;2023-05-11T01:08:58;95584.06;;;9.48;83.80
10652;BME280;5374;42.742;23.266;2023-05-11T01:11:52;95623.97;;;9.58;84.06
10652;BME280;5374;42.742;23.266;2023-05-11T01:14:58;95622.69;;;9.61;83.24
10652;BME280;5374;42.742;23.266;2023-05-11T01:17:54;95631.63;;;9.72;82.46
10652;BME280;5374;42.742;23.266;2023-05-11T01:20:46;95628.91;;;9.67;83.15
10652;BME280;5374;42.742;23.266;2023-05-11T01:24:30;95619.78;;;9.46;83.20
10652;BME280;5374;42.742;23.266;2023-05-11T01:28:06;95665.03;;;9.73;82.86
10652;BME280;5374;42.742;23.266;2023-05-11T01:31:05;95593.88;;;9.08;82.90
10652;BME280;5374;42.742;23.266;2023-05-11T01:33:56;95631.69;;;9.32;84.10
10652;BME280;5374;42.742;23.266;2023-05-11T01:36:50;95655.69;;;9.53;83.96
10652;BME280;5374;42.742;23.266;2023-05-11T01:39:44;95570.97;;;9.13;82.31
10652;BME280;5374;42.742;23.266;2023-05-11T01:42:40;95625.00;;;9.41;81.98
10652;BME280;5374;42.742;23.266;2023-05-11T01:45:32;95636.81;;;9.50;81.78
10652;BME280;5374;42.742;23.266;2023-05-11T01:48:24;95650.59;;;9.64;81.87
10652;BME280;5374;42.742;23.266;2023-05-11T01:51:15;95651.06;;;9.60;83.16
10652;BME280;5374;42.742;23.266;2023-05-11T01:54:07;95689.69;;;9.85;81.84
10652;BME280;5374;42.742;23.266;2023-05-11T01:56:56;95681.06;;;9.78;82.35
10652;BME280;5374;42.742;23.266;2023-05-11T01:59:44;95597.41;;;9.25;81.47
10652;BME280;5374;42.742;23.266;2023-05-11T02:02:33;95641.06;;;9.51;82.03
10652;BME280;5374;42.742;23.266;2023-05-11T02:05:22;95680.97;;;9.73;82.21
10652;BME280;5374;42.742;23.266;2023-05-11T02:08:10;95596.94;;;9.00;84.01
10652;BME280;5374;42.742;23.266;2023-05-11T02:11:04;95665.91;;;9.62;83.36
10652;BME280;5374;42.742;23.266;2023-05-11T02:13:58;95641.88;;;9.51;82.35
10652;BME280;5374;42.742;23.266;2023-05-11T02:16:47;95619.81;;;9.34;81.91
10652;BME280;5374;42.742;23.266;2023-05-11T02:19:41;95597.22;;;9.15;82.04
10652;BME280;5374;42.742;23.266;2023-05-11T02:22:34;95576.56;;;9.00;82.91
10652;BME280;5374;42.742;23.266;2023-05-11T02:25:23;95632.03;;;9.35;83.37
10652;BME280;5374;42.742;23.266;2023-05-11T02:28:14;95598.72;;;9.11;83.13
10652;BME280;5374;42.742;23.266;2023-05-11T02:31:11;95691.50;;;9.68;82.37
10652;BME280;5374;42.742;23.266;2023-05-11T02:34:06;95687.13;;;9.62;83.30
10652;BME280;5374;42.742;23.266;2023-05-11T02:36:59;95663.47;;;9.43;83.38
10652;BME280;5374;42.742;23.266;2023-05-11T02:39:57;95573.00;;;8.83;84.60
10652;BME280;5374;42.742;23.266;2023-05-11T02:46:32;95595.50;;;8.80;84.55
10652;BME280;5374;42.742;23.266;2023-05-11T02:49:38;95634.00;;;9.28;84.81
10652;BME280;5374;42.742;23.266;2023-05-11T02:52:35;95566.09;;;8.53;85.75
10652;BME280;5374;42.742;23.266;2023-05-11T02:58:48;95634.97;;;9.22;85.65
10652;BME280;5374;42.742;23.266;2023-05-11T03:01:51;95599.66;;;8.76;86.12
10652;BME280;5374;42.742;23.266;2023-05-11T03:04:41;95645.13;;;9.13;85.94
10652;BME280;5374;42.742;23.266;2023-05-11T03:07:30;95627.97;;;9.04;86.44
10652;BME280;5374;42.742;23.266;2023-05-11T03:10:17;95636.59;;;9.23;85.79
10652;BME280;5374;42.742;23.266;2023-05-11T03:13:05;95580.44;;;8.69;86.32
10652;BME280;5374;42.742;23.266;2023-05-11T03:16:03;95674.25;;;9.25;87.15
10652;BME280;5374;42.742;23.266;2023-05-11T03:18:53;95619.06;;;8.94;87.41
10652;BME280;5374;42.742;23.266;2023-05-11T03:21:58;95675.88;;;9.26;87.42
10652;BME280;5374;42.742;23.266;2023-05-11T03:25:05;95638.97;;;8.84;89.00
10652;BME280;5374;42.742;23.266;2023-05-11T03:28:02;95602.78;;;8.50;90.33
10652;BME280;5374;42.742;23.266;2023-05-11T03:31:00;95641.97;;;8.88;90.48
10652;BME280;5374;42.742;23.266;2023-05-11T03:34:20;95541.03;;;8.09;92.31
10652;BME280;5374;42.742;23.266;2023-05-11T03:37:13;95595.19;;;8.42;91.61
10652;BME280;5374;42.742;23.266;2023-05-11T03:47:23;95680.94;;;9.16;91.78
10652;BME280;5374;42.742;23.266;2023-05-11T03:50:22;95597.47;;;8.62;92.93
10652;BME280;5374;42.742;23.266;2023-05-11T03:53:12;95574.50;;;8.50;93.75
10652;BME280;5374;42.742;23.266;2023-05-11T03:58:44;95655.44;;;8.98;95.09
10652;BME280;5374;42.742;23.266;2023-05-11T04:01:31;95689.72;;;9.05;98.58
10652;BME280;5374;42.742;23.266;2023-05-11T04:18:17;95648.41;;;8.92;99.75
10652;BME280;5374;42.742;23.266;2023-05-11T05:48:26;95734.53;;;9.86;100.00
10652;BME280;5374;42.742;23.266;2023-05-11T05:51:13;95734.28;;;9.88;100.00
10652;BME280;5374;42.742;23.266;2023-05-11T05:54:01;95711.81;;;9.62;100.00
10652;BME280;5374;42.742;23.266;2023-05-11T05:57:05;95683.78;;;9.66;99.09
10652;BME280;5374;42.742;23.266;2023-05-11T05:59:52;95722.66;;;9.89;99.39
10652;BME280;5374;42.742;23.266;2023-05-11T06:03:29;95697.50;;;9.91;99.65
10652;BME280;5374;42.742;23.266;2023-05-11T06:06:05;95781.75;;;10.01;100.00
10652;BME280;5374;42.742;23.266;2023-05-11T06:08:55;95684.44;;;9.45;100.00
10652;BME280;5374;42.742;23.266;2023-05-11T06:12:21;95626.47;;;9.08;98.00
10652;BME280;5374;42.742;23.266;2023-05-11T06:21:21;95757.41;;;10.04;98.81
10652;BME280;5374;42.742;23.266;2023-05-11T06:24:08;95752.69;;;9.94;97.03
10652;BME280;5374;42.742;23.266;2023-05-11T06:26:55;95762.13;;;10.02;96.33
10652;BME280;5374;42.742;23.266;2023-05-11T06:29:42;95763.59;;;10.10;95.63
10652;BME280;5374;42.742;23.266;2023-05-11T06:32:29;95756.56;;;9.87;97.58
10652;BME280;5374;42.742;23.266;2023-05-11T06:35:16;95777.47;;;10.00;96.93
10652;BME280;5374;42.742;23.266;2023-05-11T06:38:05;95727.47;;;9.64;99.25
10652;BME280;5374;42.742;23.266;2023-05-11T06:40:52;95751.16;;;9.82;100.00
10652;BME280;5374;42.742;23.266;2023-05-11T06:43:39;95725.16;;;9.67;96.90
10652;BME280;5374;42.742;23.266;2023-05-11T06:46:26;95766.88;;;10.00;96.78
10652;BME280;5374;42.742;23.266;2023-05-11T06:49:14;95733.25;;;9.89;94.09
10652;BME280;5374;42.742;23.266;2023-05-11T06:52:01;95762.41;;;10.17;93.98
10652;BME280;5374;42.742;23.266;2023-05-11T06:54:49;95765.59;;;10.03;92.74
10652;BME280;5374;42.742;23.266;2023-05-11T06:57:36;95772.75;;;10.31;91.22
10652;BME280;5374;42.742;23.266;2023-05-11T07:00:24;95760.06;;;10.33;89.34
10652;BME280;5374;42.742;23.266;2023-05-11T07:03:11;95749.91;;;10.46;87.93
10652;BME280;5374;42.742;23.266;2023-05-11T07:05:58;95760.88;;;10.50;89.10
10652;BME280;5374;42.742;23.266;2023-05-11T07:08:45;95773.97;;;10.73;87.13
10652;BME280;5374;42.742;23.266;2023-05-11T07:11:34;95770.53;;;10.73;84.81
10652;BME280;5374;42.742;23.266;2023-05-11T07:14:22;95747.09;;;10.53;85.44
10652;BME280;5374;42.742;23.266;2023-05-11T07:17:09;95729.97;;;10.77;82.19
10652;BME280;5374;42.742;23.266;2023-05-11T07:19:56;95773.69;;;11.25;77.76
10652;BME280;5374;42.742;23.266;2023-05-11T07:22:43;95781.31;;;11.38;77.19
10652;BME280;5374;42.742;23.266;2023-05-11T07:25:30;95759.53;;;11.41;76.51
10652;BME280;5374;42.742;23.266;2023-05-11T07:28:21;95747.38;;;11.45;74.84
10652;BME280;5374;42.742;23.266;2023-05-11T07:31:08;95774.91;;;11.78;75.21
10652;BME280;5374;42.742;23.266;2023-05-11T07:33:56;95772.78;;;11.80;73.01
10652;BME280;5374;42.742;23.266;2023-05-11T07:36:43;95769.16;;;11.86;73.35
10652;BME280;5374;42.742;23.266;2023-05-11T07:39:31;95727.53;;;12.02;69.01
10652;BME280;5374;42.742;23.266;2023-05-11T07:42:18;95737.13;;;12.03;69.02
10652;BME280;5374;42.742;23.266;2023-05-11T07:45:08;95787.25;;;12.64;67.71
10652;BME280;5374;42.742;23.266;2023-05-11T07:47:55;95755.09;;;12.76;65.97
10652;BME280;5374;42.742;23.266;2023-05-11T07:50:42;95770.53;;;12.15;68.34
10652;BME280;5374;42.742;23.266;2023-05-11T07:53:29;95785.78;;;12.52;68.13
10652;BME280;5374;42.742;23.266;2023-05-11T07:56:17;95745.56;;;12.53;67.06
10652;BME280;5374;42.742;23.266;2023-05-11T07:59:05;95760.13;;;12.41;65.44
10652;BME280;5374;42.742;23.266;2023-05-11T08:01:53;95739.72;;;12.24;66.98
10652;BME280;5374;42.742;23.266;2023-05-11T08:04:40;95793.94;;;12.40;67.12
10652;BME280;5374;42.742;23.266;2023-05-11T08:07:28;95743.78;;;12.32;65.71
10652;BME280;5374;42.742;23.266;2023-05-11T08:10:15;95775.19;;;12.57;65.78
10652;BME280;5374;42.742;23.266;2023-05-11T08:13:02;95728.28;;;12.56;65.42
10652;BME280;5374;42.742;23.266;2023-05-11T08:15:59;95757.19;;;13.11;64.32
10652;BME280;5374;42.742;23.266;2023-05-11T08:18:48;95674.94;;;12.88;62.63
10652;BME280;5374;42.742;23.266;2023-05-11T08:21:35;95787.19;;;13.81;62.86
10652;BME280;5374;42.742;23.266;2023-05-11T08:24:22;95746.63;;;13.84;61.18
10652;BME280;5374;42.742;23.266;2023-05-11T08:27:10;95782.75;;;14.12;60.85
10652;BME280;5374;42.742;23.266;2023-05-11T08:29:57;95767.78;;;14.06;60.64
10652;BME280;5374;42.742;23.266;2023-05-11T08:32:44;95779.59;;;14.30;59.94
10652;BME280;5374;42.742;23.266;2023-05-11T08:35:33;95781.00;;;14.43;60.25
10652;BME280;5374;42.742;23.266;2023-05-11T08:38:20;95776.22;;;13.72;62.23
10652;BME280;5374;42.742;23.266;2023-05-11T08:41:10;95775.28;;;14.14;61.36
10652;BME280;5374;42.742;23.266;2023-05-11T08:43:58;95770.69;;;14.04;59.74
10652;BME280;5374;42.742;23.266;2023-05-11T08:46:48;95767.44;;;13.82;60.82
10652;BME280;5374;42.742;23.266;2023-05-11T08:49:37;95783.53;;;13.97;60.74
10652;BME280;5374;42.742;23.266;2023-05-11T08:52:26;95773.59;;;13.87;60.81
10652;BME280;5374;42.742;23.266;2023-05-11T08:55:13;95774.66;;;13.86;61.05
10652;BME280;5374;42.742;23.266;2023-05-11T08:58:02;95762.53;;;13.53;62.34
10652;BME280;5374;42.742;23.266;2023-05-11T09:00:50;95764.75;;;13.82;61.83
10652;BME280;5374;42.742;23.266;2023-05-11T09:03:39;95772.25;;;13.85;62.29
10652;BME280;5374;42.742;23.266;2023-05-11T09:06:27;95764.47;;;13.73;62.81
10652;BME280;5374;42.742;23.266;2023-05-11T09:09:16;95715.09;;;13.71;62.05
10652;BME280;5374;42.742;23.266;2023-05-11T09:12:03;95762.16;;;14.07;61.04
10652;BME280;5374;42.742;23.266;2023-05-11T09:14:51;95744.78;;;13.89;61.47
10652;BME280;5374;42.742;23.266;2023-05-11T09:17:39;95770.94;;;13.87;61.82
10652;BME280;5374;42.742;23.266;2023-05-11T09:20:27;95762.69;;;14.04;61.48
10652;BME280;5374;42.742;23.266;2023-05-11T09:23:15;95769.69;;;14.25;61.89
10652;BME280;5374;42.742;23.266;2023-05-11T09:26:03;95763.19;;;13.91;61.14
10652;BME280;5374;42.742;23.266;2023-05-11T09:28:58;95775.47;;;13.92;61.08
10652;BME280;5374;42.742;23.266;2023-05-11T09:31:46;95766.19;;;14.15;61.25
10652;BME280;5374;42.742;23.266;2023-05-11T09:34:33;95739.69;;;13.88;62.36
10652;BME280;5374;42.742;23.266;2023-05-11T09:37:21;95773.72;;;14.23;60.75
10652;BME280;5374;42.742;23.266;2023-05-11T09:40:09;95740.31;;;14.25;60.17
10652;BME280;5374;42.742;23.266;2023-05-11T09:42:58;95742.97;;;14.15;61.70
10652;BME280;5374;42.742;23.266;2023-05-11T09:45:47;95769.75;;;14.71;59.79
10652;BME280;5374;42.742;23.266;2023-05-11T09:48:34;95762.53;;;14.92;58.88
10652;BME280;5374;42.742;23.266;2023-05-11T09:51:27;95763.59;;;14.50;60.75
10652;BME280;5374;42.742;23.266;2023-05-11T09:54:16;95760.59;;;14.16;62.72
10652;BME280;5374;42.742;23.266;2023-05-11T09:57:04;95755.25;;;14.16;62.37
10652;BME280;5374;42.742;23.266;2023-05-11T09:59:55;95759.00;;;14.30;62.54
10652;BME280;5374;42.742;23.266;2023-05-11T10:02:42;95726.38;;;13.93;63.72
10652;BME280;5374;42.742;23.266;2023-05-11T10:05:31;95746.72;;;14.24;63.31
10652;BME280;5374;42.742;23.266;2023-05-11T10:08:26;95748.47;;;13.73;63.42
10652;BME280;5374;42.742;23.266;2023-05-11T10:11:14;95734.25;;;13.52;64.54
10652;BME280;5374;42.742;23.266;2023-05-11T10:14:01;95727.66;;;13.85;64.79
10652;BME280;5374;42.742;23.266;2023-05-11T10:16:51;95673.00;;;14.18;62.57
10652;BME280;5374;42.742;23.266;2023-05-11T10:19:38;95738.72;;;14.34;62.73
10652;BME280;5374;42.742;23.266;2023-05-11T10:22:27;95648.63;;;13.69;62.74
10652;BME280;5374;42.742;23.266;2023-05-11T10:25:14;95712.00;;;14.29;62.34
10652;BME280;5374;42.742;23.266;2023-05-11T10:28:02;95732.25;;;14.00;63.55
10652;BME280;5374;42.742;23.266;2023-05-11T10:30:50;95722.16;;;14.22;63.31
10652;BME280;5374;42.742;23.266;2023-05-11T10:33:40;95700.81;;;14.53;60.99
10652;BME280;5374;42.742;23.266;2023-05-11T10:36:27;95710.44;;;14.84;60.42
10652;BME280;5374;42.742;23.266;2023-05-11T10:39:15;95708.81;;;14.78;60.41
10652;BME280;5374;42.742;23.266;2023-05-11T10:42:17;95712.75;;;15.16;57.50
10652;BME280;5374;42.742;23.266;2023-05-11T10:45:15;95701.59;;;14.79;57.58
10652;BME280;5374;42.742;23.266;2023-05-11T10:48:21;95697.59;;;14.71;58.92
10652;BME280;5374;42.742;23.266;2023-05-11T10:51:39;95709.09;;;14.51;60.09
10652;BME280;5374;42.742;23.266;2023-05-11T10:54:43;95714.69;;;14.70;60.29
10652;BME280;5374;42.742;23.266;2023-05-11T10:57:38;95715.78;;;14.54;60.67
10652;BME280;5374;42.742;23.266;2023-05-11T11:01:02;95687.19;;;14.54;59.56
10652;BME280;5374;42.742;23.266;2023-05-11T11:03:57;95714.44;;;14.77;61.17
10652;BME280;5374;42.742;23.266;2023-05-11T11:07:03;95683.69;;;14.69;60.00
10652;BME280;5374;42.742;23.266;2023-05-11T11:09:53;95710.88;;;15.27;58.94
10652;BME280;5374;42.742;23.266;2023-05-11T11:13:01;95708.00;;;14.98;58.66
10652;BME280;5374;42.742;23.266;2023-05-11T11:16:07;95700.97;;;15.17;59.34
10652;BME280;5374;42.742;23.266;2023-05-11T11:22:43;95696.84;;;15.55;57.96
10652;BME280;5374;42.742;23.266;2023-05-11T11:25:50;95703.81;;;15.61;57.04
10652;BME280;5374;42.742;23.266;2023-05-11T11:29:09;95691.78;;;15.54;56.89
10652;BME280;5374;42.742;23.266;2023-05-11T11:32:23;95692.34;;;15.46;58.60
10652;BME280;5374;42.742;23.266;2023-05-11T11:35:45;95689.31;;;15.72;55.95
10652;BME280;5374;42.742;23.266;2023-05-11T11:38:57;95687.84;;;15.95;56.42
10652;BME280;5374;42.742;23.266;2023-05-11T11:41:45;95687.22;;;15.54;57.42
10652;BME280;5374;42.742;23.266;2023-05-11T11:44:33;95692.50;;;15.80;55.64
10652;BME280;5374;42.742;23.266;2023-05-11T11:47:22;95646.84;;;15.56;55.29
10652;BME280;5374;42.742;23.266;2023-05-11T11:50:11;95630.53;;;15.37;56.06
10652;BME280;5374;42.742;23.266;2023-05-11T11:52:58;95674.47;;;15.31;57.74
10652;BME280;5374;42.742;23.266;2023-05-11T11:55:50;95678.88;;;15.71;57.16
10652;BME280;5374;42.742;23.266;2023-05-11T11:58:56;95678.41;;;15.59;57.63
10652;BME280;5374;42.742;23.266;2023-05-11T12:01:44;95672.16;;;15.79;57.96
10652;BME280;5374;42.742;23.266;2023-05-11T12:04:55;95665.19;;;15.78;58.47
10652;BME280;5374;42.742;23.266;2023-05-11T12:07:44;95671.38;;;15.68;56.35
10652;BME280;5374;42.742;23.266;2023-05-11T12:10:32;95671.94;;;15.60;57.50
10652;BME280;5374;42.742;23.266;2023-05-11T12:13:21;95672.06;;;15.89;56.44
10652;BME280;5374;42.742;23.266;2023-05-11T12:16:10;95667.19;;;16.01;54.76
10652;BME280;5374;42.742;23.266;2023-05-11T12:18:59;95661.34;;;15.94;55.64
10652;BME280;5374;42.742;23.266;2023-05-11T12:21:47;95650.59;;;15.45;57.58
10652;BME280;5374;42.742;23.266;2023-05-11T12:24:34;95673.41;;;15.27;58.21
10652;BME280;5374;42.742;23.266;2023-05-11T12:27:22;95665.03;;;15.44;57.01
10652;BME280;5374;42.742;23.266;2023-05-11T12:30:19;95651.41;;;15.40;58.88
10652;BME280;5374;42.742;23.266;2023-05-11T12:33:07;95657.84;;;15.39;58.32
10652;BME280;5374;42.742;23.266;2023-05-11T12:35:55;95625.81;;;15.19;58.22
10652;BME280;5374;42.742;23.266;2023-05-11T12:38:43;95643.91;;;15.42;58.90
10652;BME280;5374;42.742;23.266;2023-05-11T12:41:31;95643.84;;;15.62;57.70
10652;BME280;5374;42.742;23.266;2023-05-11T12:44:19;95632.75;;;15.20;58.16
10652;BME280;5374;42.742;23.266;2023-05-11T12:47:09;95627.28;;;14.86;58.66
10652;BME280;5374;42.742;23.266;2023-05-11T12:49:57;95642.50;;;14.90;59.04
10652;BME280;5374;42.742;23.266;2023-05-11T12:52:44;95586.44;;;14.34;59.84
10652;BME280;5374;42.742;23.266;2023-05-11T12:55:32;95616.81;;;14.94;58.48
10652;BME280;5374;42.742;23.266;2023-05-11T12:58:19;95613.44;;;14.38;59.62
10652;BME280;5374;42.742;23.266;2023-05-11T13:01:07;95642.03;;;14.63;59.94
10652;BME280;5374;42.742;23.266;2023-05-11T13:03:55;95634.28;;;14.56;60.09
10652;BME280;5374;42.742;23.266;2023-05-11T13:06:43;95628.38;;;14.24;61.91
10652;BME280;5374;42.742;23.266;2023-05-11T13:09:31;95616.91;;;14.28;60.93
10652;BME280;5374;42.742;23.266;2023-05-11T13:12:18;95601.69;;;14.34;60.66
10652;BME280;5374;42.742;23.266;2023-05-11T13:15:07;95597.41;;;14.18;60.91
10652;BME280;5374;42.742;23.266;2023-05-11T13:18:00;95596.31;;;14.49;59.61
10652;BME280;5374;42.742;23.266;2023-05-11T13:21:03;95596.88;;;14.21;60.84
10652;BME280;5374;42.742;23.266;2023-05-11T13:23:51;95609.72;;;14.19;61.31
10652;BME280;5374;42.742;23.266;2023-05-11T13:26:39;95610.25;;;13.95;62.03
10652;BME280;5374;42.742;23.266;2023-05-11T13:29:26;95613.97;;;13.94;62.93
10652;BME280;5374;42.742;23.266;2023-05-11T13:32:14;95597.16;;;13.89;62.03
10652;BME280;5374;42.742;23.266;2023-05-11T13:35:02;95615.28;;;14.02;61.47
10652;BME280;5374;42.742;23.266;2023-05-11T13:37:51;95561.91;;;13.82;61.36
10652;BME280;5374;42.742;23.266;2023-05-11T13:40:39;95584.34;;;14.16;61.35
10652;BME280;5374;42.742;23.266;2023-05-11T13:43:26;95557.38;;;13.72;61.25
10652;BME280;5374;42.742;23.266;2023-05-11T13:46:13;95611.03;;;14.06;62.12
10652;BME280;5374;42.742;23.266;2023-05-11T13:49:01;95604.59;;;14.32;61.20
10652;BME280;5374;42.742;23.266;2023-05-11T13:51:49;95602.75;;;14.38;61.41
10652;BME280;5374;42.742;23.266;2023-05-11T13:54:38;95601.41;;;14.10;61.88
10652;BME280;5374;42.742;23.266;2023-05-11T13:57:25;95605.69;;;14.36;61.67
10652;BME280;5374;42.742;23.266;2023-05-11T14:00:13;95600.09;;;14.43;61.16
10652;BME280;5374;42.742;23.266;2023-05-11T14:03:01;95589.13;;;14.40;62.32
10652;BME280;5374;42.742;23.266;2023-05-11T14:05:49;95597.13;;;14.24;61.80
10652;BME280;5374;42.742;23.266;2023-05-11T14:08:36;95597.69;;;14.11;62.30
10652;BME280;5374;42.742;23.266;2023-05-11T14:11:25;95591.28;;;14.17;62.83
10652;BME280;5374;42.742;23.266;2023-05-11T14:14:12;95561.34;;;13.80;61.96
10652;BME280;5374;42.742;23.266;2023-05-11T14:16:59;95607.28;;;14.07;62.59
10652;BME280;5374;42.742;23.266;2023-05-11T14:19:46;95589.66;;;14.11;62.36
10652;BME280;5374;42.742;23.266;2023-05-11T14:22:33;95562.16;;;14.06;63.21
10652;BME280;5374;42.742;23.266;2023-05-11T14:25:21;95587.81;;;14.42;62.60
10652;BME280;5374;42.742;23.266;2023-05-11T14:28:09;95588.59;;;14.22;62.28
10652;BME280;5374;42.742;23.266;2023-05-11T14:30:56;95585.38;;;14.30;63.02
10652;BME280;5374;42.742;23.266;2023-05-11T14:33:44;95587.81;;;14.22;62.12
10652;BME280;5374;42.742;23.266;2023-05-11T14:36:31;95564.84;;;14.00;61.88
10652;BME280;5374;42.742;23.266;2023-05-11T14:39:18;95588.06;;;13.85;62.26
10652;BME280;5374;42.742;23.266;2023-05-11T14:42:06;95595.78;;;13.81;63.47
10652;BME280;5374;42.742;23.266;2023-05-11T14:44:54;95589.94;;;13.74;63.19
10652;BME280;5374;42.742;23.266;2023-05-11T14:47:42;95599.78;;;13.68;63.33
10652;BME280;5374;42.742;23.266;2023-05-11T14:50:30;95603.50;;;13.57;63.41
10652;BME280;5374;42.742;23.266;2023-05-11T14:53:17;95597.31;;;13.37;63.60
10652;BME280;5374;42.742;23.266;2023-05-11T14:56:04;95594.66;;;13.42;63.30
10652;BME280;5374;42.742;23.266;2023-05-11T14:58:52;95608.03;;;13.47;63.19
10652;BME280;5374;42.742;23.266;2023-05-11T15:01:40;95599.72;;;13.38;64.07
10652;BME280;5374;42.742;23.266;2023-05-11T15:04:27;95586.41;;;13.43;63.79
10652;BME280;5374;42.742;23.266;2023-05-11T15:07:15;95590.44;;;13.51;63.35
10652;BME280;5374;42.742;23.266;2023-05-11T15:10:02;95602.94;;;13.45;64.28
10652;BME280;5374;42.742;23.266;2023-05-11T15:12:50;95592.22;;;13.20;64.46
10652;BME280;5374;42.742;23.266;2023-05-11T15:15:38;95593.56;;;13.27;63.86
10652;BME280;5374;42.742;23.266;2023-05-11T15:18:27;95595.44;;;13.27;64.27
10652;BME280;5374;42.742;23.266;2023-05-11T15:21:14;95568.69;;;13.12;63.92
10652;BME280;5374;42.742;23.266;2023-05-11T15:24:01;95599.72;;;13.28;64.24
10652;BME280;5374;42.742;23.266;2023-05-11T15:27:05;95584.69;;;13.07;64.54
10652;BME280;5374;42.742;23.266;2023-05-11T15:30:08;95524.50;;;12.53;64.11
10652;BME280;5374;42.742;23.266;2023-05-11T15:33:21;95510.84;;;12.40;63.36
10652;BME280;5374;42.742;23.266;2023-05-11T15:36:14;95594.81;;;13.05;64.06
10652;BME280;5374;42.742;23.266;2023-05-11T15:39:09;95540.53;;;12.68;63.76
10652;BME280;5374;42.742;23.266;2023-05-11T15:41:59;95588.13;;;13.12;63.53
10652;BME280;5374;42.742;23.266;2023-05-11T15:44:47;95513.25;;;12.41;64.42
10652;BME280;5374;42.742;23.266;2023-05-11T15:47:34;95571.31;;;12.96;64.60
10652;BME280;5374;42.742;23.266;2023-05-11T15:50:34;95590.50;;;12.98;64.20
10652;BME280;5374;42.742;23.266;2023-05-11T15:53:24;95581.66;;;12.88;64.85
10652;BME280;5374;42.742;23.266;2023-05-11T15:56:11;95591.53;;;12.92;64.65
10652;BME280;5374;42.742;23.266;2023-05-11T15:58:59;95599.56;;;12.97;64.37
10652;BME280;5374;42.742;23.266;2023-05-11T16:01:46;95602.25;;;13.02;64.46
10652;BME280;5374;42.742;23.266;2023-05-11T16:04:34;95594.19;;;12.87;64.54
10652;BME280;5374;42.742;23.266;2023-05-11T16:07:30;95604.00;;;12.77;65.58
10652;BME280;5374;42.742;23.266;2023-05-11T16:10:18;95599.47;;;12.77;65.29
10652;BME280;5374;42.742;23.266;2023-05-11T16:13:06;95598.94;;;12.80;65.17
10652;BME280;5374;42.742;23.266;2023-05-11T16:15:53;95589.75;;;12.56;66.12
10652;BME280;5374;42.742;23.266;2023-05-11T16:18:40;95593.31;;;12.72;66.00
10652;BME280;5374;42.742;23.266;2023-05-11T16:21:27;95579.63;;;12.53;65.65
10652;BME280;5374;42.742;23.266;2023-05-11T16:24:15;95596.03;;;12.82;65.09
10652;BME280;5374;42.742;23.266;2023-05-11T16:27:04;95597.06;;;12.76;64.80
10652;BME280;5374;42.742;23.266;2023-05-11T16:29:51;95595.78;;;12.83;64.54
10652;BME280;5374;42.742;23.266;2023-05-11T16:32:38;95599.53;;;12.87;64.69
10652;BME280;5374;42.742;23.266;2023-05-11T16:35:26;95597.94;;;12.86;64.73
10652;BME280;5374;42.742;23.266;2023-05-11T16:38:17;95582.38;;;12.73;64.31
10652;BME280;5374;42.742;23.266;2023-05-11T16:41:04;95600.34;;;12.93;64.52
10652;BME280;5374;42.742;23.266;2023-05-11T16:43:53;95586.69;;;12.79;64.52
10652;BME280;5374;42.742;23.266;2023-05-11T16:46:40;95604.06;;;12.92;64.64
10652;BME280;5374;42.742;23.266;2023-05-11T16:49:27;95600.31;;;12.83;64.62
10652;BME280;5374;42.742;23.266;2023-05-11T16:52:14;95604.84;;;12.82;64.51
10652;BME280;5374;42.742;23.266;2023-05-11T16:55:03;95609.31;;;12.77;65.23
10652;BME280;5374;42.742;23.266;2023-05-11T16:57:50;95617.00;;;12.68;65.88
10652;BME280;5374;42.742;23.266;2023-05-11T17:00:39;95613.78;;;12.66;66.15
10652;BME280;5374;42.742;23.266;2023-05-11T17:03:26;95617.78;;;12.68;65.96
10652;BME280;5374;42.742;23.266;2023-05-11T17:06:13;95597.28;;;12.69;66.28
10652;BME280;5374;42.742;23.266;2023-05-11T17:09:02;95608.53;;;12.76;66.23
10652;BME280;5374;42.742;23.266;2023-05-11T17:11:50;95615.47;;;12.77;65.97
10652;BME280;5374;42.742;23.266;2023-05-11T17:14:37;95615.63;;;12.60;66.80
10652;BME280;5374;42.742;23.266;2023-05-11T17:17:25;95613.34;;;12.79;66.05